createdAt,value
2022-11-25T00:01:29.491Z,74.50
2022-11-25T00:03:57.669Z,74.97
2022-11-25T00:06:26.785Z,74.64
2022-11-25T00:09:01.701Z,75.36
2022-11-25T00:11:28.746Z,75.85
2022-11-25T00:13:56.616Z,76.18
2022-11-25T00:16:24.573Z,75.87
2022-11-25T00:18:52.971Z,75.22
2022-11-25T00:21:23.180Z,74.14
2022-11-25T00:23:58.373Z,74.25
2022-11-25T00:26:26.525Z,73.86
2022-11-25T00:28:53.508Z,73.60
2022-11-25T00:31:22.982Z,74.45
2022-11-25T00:33:50.402Z,73.52
2022-11-25T00:36:22.662Z,77.09
2022-11-25T00:38:56.744Z,76.01
2022-11-25T00:41:42.718Z,75.68
2022-11-25T00:44:29.923Z,75.74
2022-11-25T00:46:56.411Z,76.31
2022-11-25T00:49:23.003Z,74.68
2022-11-25T00:51:49.483Z,76.93
2022-11-25T00:54:16.085Z,77.09
2022-11-25T00:56:42.584Z,78.30
2022-11-25T00:59:09.589Z,75.91
2022-11-25T01:01:36.542Z,76.22
2022-11-25T01:04:04.071Z,76.53
2022-11-25T01:06:30.560Z,78.18
2022-11-25T01:08:57.001Z,76.78
2022-11-25T01:11:24.294Z,75.69
2022-11-25T01:13:52.236Z,75.28
2022-11-25T01:16:21.234Z,75.10
2022-11-25T01:18:48.633Z,75.03
2022-11-25T01:21:23.728Z,74.00
2022-11-25T01:23:51.061Z,74.05
2022-11-25T01:26:20.139Z,73.95
2022-11-25T01:28:47.072Z,74.82
2022-11-25T01:31:15.346Z,74.17
2022-11-25T01:33:42.144Z,73.67
2022-11-25T01:36:11.565Z,73.49
2022-11-25T01:38:38.615Z,73.19
2022-11-25T01:41:06.649Z,73.56
2022-11-25T01:43:33.415Z,73.77
2022-11-25T01:46:05.983Z,73.68
2022-11-25T01:48:46.815Z,73.73
2022-11-25T01:51:38.521Z,73.13
2022-11-25T01:54:08.741Z,73.61
2022-11-25T01:56:42.088Z,73.06
2022-11-25T01:59:08.674Z,72.67
2022-11-25T02:01:35.235Z,72.66
2022-11-25T02:04:02.309Z,73.37
2022-11-25T02:07:25.543Z,72.77
2022-11-25T02:09:52.944Z,73.26
2022-11-25T02:12:20.593Z,72.86
2022-11-25T02:14:50.718Z,73.78
2022-11-25T02:17:17.534Z,73.97
2022-11-25T02:20:04.556Z,73.61
2022-11-25T02:22:40.615Z,73.46
2022-11-25T02:25:32.679Z,74.72
2022-11-25T02:28:05.987Z,74.58
2022-11-25T02:30:33.479Z,73.57
2022-11-25T02:33:00.776Z,73.91
2022-11-25T02:35:36.740Z,76.34
2022-11-25T02:38:05.855Z,77.23
2022-11-25T02:40:34.580Z,76.84
2022-11-25T02:43:01.101Z,76.72
2022-11-25T02:45:45.172Z,76.09
2022-11-25T02:48:11.654Z,76.51
2022-11-25T02:50:38.104Z,77.38
2022-11-25T02:53:04.811Z,79.16
2022-11-25T02:55:31.260Z,78.89
2022-11-25T02:57:57.714Z,78.33
2022-11-25T03:00:24.565Z,76.23
2022-11-25T03:02:53.612Z,75.53
2022-11-25T03:05:21.783Z,75.48
2022-11-25T03:07:48.433Z,74.94
2022-11-25T03:10:14.963Z,74.74
2022-11-25T03:12:41.379Z,74.70
2022-11-25T03:15:08.282Z,74.48
2022-11-25T03:17:34.737Z,74.31
2022-11-25T03:20:01.146Z,74.13
2022-11-25T03:22:27.730Z,73.77
2022-11-25T03:24:54.151Z,74.75
2022-11-25T03:27:20.758Z,74.61
2022-11-25T03:29:47.292Z,74.85
2022-11-25T03:32:13.768Z,73.94
2022-11-25T03:34:40.550Z,74.08
2022-11-25T03:37:07.179Z,74.47
2022-11-25T03:39:33.653Z,74.21
2022-11-25T03:42:00.086Z,73.87
2022-11-25T03:44:26.517Z,73.73
2022-11-25T03:46:53.117Z,73.71
2022-11-25T03:49:21.691Z,72.96
2022-11-25T03:51:49.078Z,73.33
2022-11-25T03:54:15.515Z,72.74
2022-11-25T03:56:42.110Z,73.70
2022-11-25T03:59:08.504Z,73.96
2022-11-25T04:01:35.176Z,73.74
2022-11-25T04:04:02.526Z,73.01
2022-11-25T04:06:29.319Z,73.06
2022-11-25T04:08:55.816Z,73.02
2022-11-25T04:11:22.235Z,72.81
2022-11-25T04:13:48.654Z,72.98
2022-11-25T04:16:26.338Z,72.19
2022-11-25T04:18:52.841Z,73.32
2022-11-25T04:21:19.420Z,73.63
2022-11-25T04:23:45.844Z,75.00
2022-11-25T04:26:12.353Z,73.78
2022-11-25T04:28:38.862Z,73.90
2022-11-25T04:31:09.312Z,72.86
2022-11-25T04:33:35.765Z,73.07
2022-11-25T04:36:02.181Z,73.09
2022-11-25T04:38:29.074Z,73.11
2022-11-25T04:40:55.509Z,73.36
2022-11-25T04:43:21.933Z,72.46
2022-11-25T04:46:13.056Z,72.46
2022-11-25T04:48:35.259Z,72.73
2022-11-25T04:51:01.793Z,73.21
2022-11-25T04:53:28.206Z,72.50
2022-11-25T04:55:54.635Z,73.18
2022-11-25T04:58:41.028Z,72.87
2022-11-25T05:01:07.573Z,72.50
2022-11-25T05:03:34.022Z,72.41
2022-11-25T05:06:05.086Z,72.01
2022-11-25T05:08:32.032Z,72.84
2022-11-25T05:10:59.337Z,72.81
2022-11-25T05:13:26.090Z,72.28
2022-11-25T05:15:52.510Z,72.43
2022-11-25T05:18:18.970Z,72.68
2022-11-25T05:20:45.618Z,72.88
2022-11-25T05:23:12.038Z,72.27
2022-11-25T05:25:38.557Z,72.05
2022-11-25T05:28:05.243Z,73.11
2022-11-25T05:30:31.736Z,72.50
2022-11-25T05:32:58.240Z,72.09
2022-11-25T05:35:24.788Z,72.67
2022-11-25T05:37:51.257Z,73.57
2022-11-25T05:40:17.826Z,73.50
2022-11-25T05:42:44.291Z,72.74
2022-11-25T05:45:11.191Z,72.49
2022-11-25T05:47:37.674Z,72.76
2022-11-25T05:50:04.538Z,72.51
2022-11-25T05:52:30.951Z,72.94
2022-11-25T05:54:57.694Z,72.27
2022-11-25T05:57:24.196Z,72.99
2022-11-25T05:59:50.657Z,73.08
2022-11-25T06:02:17.140Z,73.32
2022-11-25T06:04:43.662Z,73.29
2022-11-25T06:07:10.239Z,72.59
2022-11-25T06:09:36.716Z,73.19
2022-11-25T06:12:03.953Z,72.97
2022-11-25T06:14:32.108Z,73.07
2022-11-25T06:16:58.598Z,73.28
2022-11-25T06:19:25.133Z,73.45
2022-11-25T06:21:51.657Z,72.63
2022-11-25T06:24:18.275Z,73.36
2022-11-25T06:26:44.779Z,73.94
2022-11-25T06:29:11.496Z,73.25
2022-11-25T06:31:38.027Z,73.23
2022-11-25T06:34:06.535Z,73.75
2022-11-25T06:36:33.214Z,74.55
2022-11-25T06:38:59.648Z,73.30
2022-11-25T06:41:26.494Z,73.42
2022-11-25T06:43:53.168Z,73.91
2022-11-25T06:46:24.974Z,73.57
2022-11-25T06:48:53.444Z,73.25
2022-11-25T06:51:20.149Z,73.64
2022-11-25T06:53:46.680Z,73.45
2022-11-25T06:56:15.863Z,73.55
2022-11-25T06:58:43.993Z,73.88
2022-11-25T07:01:28.636Z,76.45
2022-11-25T07:03:59.756Z,75.29
2022-11-25T07:06:27.411Z,76.28
2022-11-25T07:08:54.361Z,77.69
2022-11-25T07:11:24.671Z,77.36
2022-11-25T07:13:56.842Z,75.76
2022-11-25T07:16:23.442Z,76.41
2022-11-25T07:18:50.047Z,75.42
2022-11-25T07:21:19.408Z,75.71
2022-11-25T07:23:47.155Z,76.26
2022-11-25T07:26:21.639Z,76.54
2022-11-25T07:28:49.412Z,77.13
2022-11-25T07:31:28.694Z,75.95
2022-11-25T07:34:03.921Z,78.24
2022-11-25T07:36:31.907Z,76.30
2022-11-25T07:39:00.471Z,75.11
2022-11-25T07:41:28.366Z,75.23
2022-11-25T07:43:59.157Z,76.80
2022-11-25T07:46:31.330Z,76.56
2022-11-25T07:49:02.556Z,77.17
2022-11-25T07:51:32.561Z,75.27
2022-11-25T07:54:01.270Z,74.45
2022-11-25T07:56:28.723Z,74.16
2022-11-25T07:58:56.843Z,74.20
2022-11-25T08:01:23.572Z,73.36
2022-11-25T08:03:51.328Z,73.79
2022-11-25T08:06:25.253Z,73.43
2022-11-25T08:08:54.671Z,73.70
2022-11-25T08:11:27.187Z,74.20
2022-11-25T08:13:54.492Z,74.82
2022-11-25T08:16:23.902Z,74.83
2022-11-25T08:18:50.747Z,74.44
2022-11-25T08:21:18.045Z,75.25
2022-11-25T08:23:47.961Z,76.72
2022-11-25T08:26:18.104Z,74.56
2022-11-25T08:28:45.465Z,75.10
2022-11-25T08:31:19.229Z,75.34
2022-11-25T08:33:46.887Z,74.73
2022-11-25T08:36:14.211Z,74.37
2022-11-25T08:38:42.504Z,75.07
2022-11-25T08:41:11.974Z,75.75
2022-11-25T08:43:39.567Z,76.12
2022-11-25T08:46:11.612Z,76.55
2022-11-25T08:48:38.993Z,75.45
2022-11-25T08:51:20.746Z,75.61
2022-11-25T08:53:47.610Z,75.70
2022-11-25T08:56:15.138Z,75.81
2022-11-25T08:58:42.194Z,75.86
2022-11-25T09:01:10.815Z,75.12
2022-11-25T09:03:43.577Z,73.61
2022-11-25T09:06:11.174Z,73.75
2022-11-25T09:08:40.073Z,74.21
2022-11-25T09:11:07.866Z,73.26
2022-11-25T09:13:38.026Z,72.53
2022-11-25T09:16:05.632Z,72.34
2022-11-25T09:18:32.688Z,71.74
2022-11-25T09:20:59.788Z,71.25
2022-11-25T09:23:27.193Z,70.63
2022-11-25T09:25:58.037Z,71.61
2022-11-25T09:28:26.813Z,71.45
2022-11-25T09:30:53.558Z,70.51
2022-11-25T09:33:20.429Z,70.85
2022-11-25T09:35:47.491Z,68.00
2022-11-25T09:38:14.299Z,67.32
2022-11-25T09:40:51.152Z,67.14
2022-11-25T09:44:12.047Z,64.95
2022-11-25T09:47:00.390Z,62.69
2022-11-25T09:49:30.815Z,60.29
2022-11-25T09:52:37.148Z,60.99
2022-11-25T09:55:26.585Z,59.67
2022-11-25T09:58:00.027Z,58.63
2022-11-25T10:00:37.633Z,57.56
2022-11-25T10:03:15.335Z,56.85
2022-11-25T10:05:52.851Z,55.38
2022-11-25T10:08:25.257Z,56.28
2022-11-25T10:11:22.862Z,56.80
2022-11-25T10:14:46.273Z,58.39
2022-11-25T10:17:25.429Z,58.36
2022-11-25T10:20:04.900Z,57.50
2022-11-25T10:22:34.894Z,56.59
2022-11-25T10:25:23.782Z,57.70
2022-11-25T10:27:55.790Z,57.25
2022-11-25T10:30:33.091Z,56.59
2022-11-25T10:33:22.656Z,55.75
2022-11-25T10:36:22.120Z,56.23
2022-11-25T10:39:13.624Z,56.13
2022-11-25T10:41:55.173Z,55.68
2022-11-25T10:44:37.707Z,54.98
2022-11-25T10:47:43.301Z,54.41
2022-11-25T10:50:59.115Z,54.92
2022-11-25T10:53:30.807Z,54.64
2022-11-25T10:56:01.496Z,54.62
2022-11-25T10:58:49.540Z,56.69
2022-11-25T11:01:25.856Z,54.06
2022-11-25T11:04:19.071Z,54.95
2022-11-25T11:06:48.413Z,54.98
2022-11-25T11:09:34.500Z,55.54
2022-11-25T11:12:15.512Z,53.88
2022-11-25T11:14:42.069Z,53.87
2022-11-25T11:17:35.999Z,54.62
2022-11-25T11:20:09.629Z,53.66
2022-11-25T11:22:47.443Z,52.18
2022-11-25T11:25:27.775Z,54.13
2022-11-25T11:27:55.001Z,53.47
2022-11-25T11:30:26.640Z,53.55
2022-11-25T11:32:56.188Z,53.56
2022-11-25T11:35:50.925Z,53.10
2022-11-25T11:38:40.690Z,53.11
2022-11-25T11:41:53.854Z,53.26
2022-11-25T11:44:54.746Z,52.35
2022-11-25T11:47:43.811Z,51.56
2022-11-25T11:50:25.032Z,51.04
2022-11-25T11:53:47.218Z,51.47
2022-11-25T12:00:09.595Z,51.31
2022-11-25T12:02:59.207Z,50.75
2022-11-25T12:05:37.296Z,52.62
2022-11-25T12:08:13.672Z,52.90
2022-11-25T12:10:45.274Z,52.90
2022-11-25T12:13:32.933Z,54.47
2022-11-25T12:16:16.301Z,56.01
2022-11-25T12:19:04.165Z,56.50
2022-11-25T12:21:36.310Z,56.41
2022-11-25T12:24:17.334Z,56.28
2022-11-25T12:27:03.745Z,57.03
2022-11-25T12:30:19.118Z,58.41
2022-11-25T12:33:34.893Z,60.21
2022-11-25T12:36:56.843Z,62.32
2022-11-25T12:39:45.725Z,63.01
2022-11-25T12:42:32.840Z,63.03
2022-11-25T12:45:18.404Z,63.39
2022-11-25T12:47:45.448Z,63.78
2022-11-25T12:50:18.948Z,63.27
2022-11-25T12:53:00.535Z,63.03
2022-11-25T12:55:30.834Z,64.11
2022-11-25T13:07:54.286Z,63.75
2022-11-25T13:19:23.340Z,68.42
2022-11-25T13:30:37.730Z,65.68
2022-11-25T13:36:23.100Z,65.90
2022-11-25T13:38:56.696Z,66.59
2022-11-25T13:41:47.483Z,66.87
2022-11-25T13:44:49.025Z,66.19
2022-11-25T13:47:40.771Z,66.50
2022-11-25T13:51:10.774Z,66.71
2022-11-25T13:53:53.036Z,67.18
2022-11-25T13:56:32.525Z,67.38
2022-11-25T13:59:44.323Z,68.06
2022-11-25T14:02:58.743Z,68.02
2022-11-25T14:08:37.851Z,68.60
2022-11-25T14:14:01.211Z,68.91
2022-11-25T14:43:02.365Z,69.66
2022-11-25T16:12:25.751Z,71.29
2022-11-25T16:20:25.379Z,71.23
2022-11-25T16:37:24.531Z,70.73
2022-11-25T16:39:57.728Z,71.18
2022-11-25T16:42:34.158Z,71.13
2022-11-25T16:47:55.534Z,71.11
2022-11-25T16:58:44.204Z,69.83
2022-11-25T17:07:30.671Z,70.08
2022-11-25T17:18:06.896Z,70.43
2022-11-25T17:32:13.527Z,71.30
2022-11-25T17:37:24.047Z,70.63
2022-11-25T17:39:54.434Z,70.56
2022-11-25T17:42:28.612Z,71.80
2022-11-25T17:44:55.844Z,72.58
2022-11-25T17:47:22.560Z,72.61
2022-11-25T17:49:49.691Z,72.00
2022-11-25T17:52:16.968Z,72.38
2022-11-25T17:54:43.666Z,72.41
2022-11-25T17:57:18.960Z,72.40
2022-11-25T17:59:45.624Z,72.34
2022-11-25T18:02:21.500Z,71.98
2022-11-25T18:04:50.546Z,71.42
2022-11-25T18:07:17.858Z,71.97
2022-11-25T18:09:45.664Z,70.96
2022-11-25T18:12:30.942Z,71.37
2022-11-25T18:14:57.877Z,73.07
2022-11-25T18:17:24.849Z,71.48
2022-11-25T18:19:54.866Z,71.75
2022-11-25T18:22:24.595Z,71.20
2022-11-25T18:24:52.480Z,71.33
2022-11-25T18:27:29.908Z,72.35
2022-11-25T18:29:57.382Z,71.97
2022-11-25T18:32:25.745Z,72.63
2022-11-25T18:34:52.652Z,72.35
2022-11-25T20:42:22.368Z,73.85
2022-11-25T20:44:54.695Z,74.24
2022-11-25T20:47:26.082Z,74.19
2022-11-25T21:35:40.760Z,73.93
2022-11-25T21:38:14.964Z,74.66
2022-11-25T21:43:28.816Z,74.53
2022-11-25T21:51:27.505Z,75.37
2022-11-25T21:53:54.555Z,74.70
2022-11-25T22:04:55.452Z,74.63
2022-11-25T22:10:12.054Z,74.52
2022-11-25T22:12:41.684Z,75.40
2022-11-25T22:15:20.852Z,75.57
2022-11-25T22:20:34.325Z,74.45
2022-11-25T22:23:01.730Z,75.04
2022-11-25T22:25:31.191Z,74.66
2022-11-25T22:27:57.705Z,74.52
2022-11-25T22:33:03.109Z,75.81
2022-11-25T22:35:29.759Z,76.09
2022-11-25T22:37:56.258Z,76.28
2022-11-25T22:40:23.966Z,76.68
2022-11-25T22:42:52.049Z,77.08
2022-11-25T22:45:32.966Z,76.36
2022-11-25T22:48:04.649Z,75.98
2022-11-25T22:50:32.119Z,76.96
2022-11-25T22:53:00.250Z,76.37
2022-11-25T22:55:29.851Z,76.32
2022-11-25T22:57:58.703Z,76.85
2022-11-25T23:00:28.247Z,76.19
2022-11-25T23:02:56.788Z,76.94
2022-11-25T23:05:34.745Z,75.99
2022-11-25T23:08:09.158Z,76.70
2022-11-25T23:10:35.645Z,76.35
2022-11-25T23:13:02.069Z,76.68
2022-11-25T23:15:29.454Z,76.09
2022-11-25T23:17:58.379Z,75.47
2022-11-25T23:20:30.485Z,75.81
2022-11-25T23:22:57.866Z,76.69
2022-11-25T23:25:24.901Z,76.57
2022-11-25T23:27:51.352Z,76.20
2022-11-25T23:30:22.899Z,75.94
2022-11-25T23:32:51.478Z,76.17
2022-11-25T23:35:21.645Z,75.94
2022-11-25T23:37:55.021Z,76.45
2022-11-25T23:40:24.018Z,76.16
2022-11-25T23:42:52.490Z,77.55
2022-11-25T23:45:21.343Z,76.29
2022-11-25T23:47:49.797Z,76.79
2022-11-25T23:50:32.407Z,76.89
2022-11-25T23:53:07.657Z,77.41
2022-11-25T23:55:37.186Z,76.84
